Time;durP1;ratioP1;P1;durP2;ratioP2;P2;SDS_P1;SDS_P2;PMS_P1;PMS_P2;Temp;Humidity;BMP_temperature;BMP_pressure;BME280_temperature;BME280_humidity;BME280_pressure;Samples;Min_cycle;Max_cycle;Signal;HPM_P1;HPM_P2
2024/03/03 00:02:11;;;;;;;26.80;9.25;;;11.00;99.90;;;;;;5052243;28;20117;-76
2024/03/03 00:04:37;;;;;;;19.98;9.70;;;11.00;99.90;;;;;;5051818;28;20053;-76
2024/03/03 00:07:03;;;;;;;19.70;9.68;;;11.00;99.90;;;;;;5051295;28;20037;-76
2024/03/03 00:09:28;;;;;;;20.35;9.50;;;11.00;99.90;;;;;;5051937;28;20047;-76
2024/03/03 00:11:54;;;;;;;20.75;10.18;;;10.90;99.90;;;;;;5052539;28;20033;-75
2024/03/03 00:14:21;;;;;;;21.77;9.90;;;10.90;99.90;;;;;;5053036;28;20077;-76
2024/03/03 00:16:47;;;;;;;20.20;9.93;;;10.90;99.90;;;;;;5052331;28;20029;-76
2024/03/03 00:19:13;;;;;;;21.35;9.40;;;10.90;99.90;;;;;;5051603;28;20031;-76
2024/03/03 00:21:38;;;;;;;21.20;9.50;;;10.80;99.90;;;;;;5052333;28;20025;-76
2024/03/03 00:24:05;;;;;;;19.75;9.55;;;10.80;99.90;;;;;;5052534;28;20040;-76
2024/03/03 00:26:32;;;;;;;23.83;10.90;;;10.80;99.90;;;;;;5052246;28;20060;-76
2024/03/03 00:28:58;;;;;;;22.25;11.00;;;10.70;99.90;;;;;;5052238;28;20466;-76
2024/03/03 00:31:24;;;;;;;22.48;9.98;;;10.70;99.90;;;;;;5053902;28;20039;-76
2024/03/03 00:33:50;;;;;;;21.05;10.02;;;10.70;99.90;;;;;;5053957;28;20026;-76
2024/03/03 00:36:16;;;;;;;19.80;10.00;;;10.70;99.90;;;;;;5051858;28;20389;-77
2024/03/03 00:38:41;;;;;;;24.95;10.40;;;10.70;99.90;;;;;;5053557;28;20428;-77
2024/03/03 00:41:07;;;;;;;20.75;10.07;;;10.60;99.90;;;;;;5053655;28;20025;-77
2024/03/03 00:43:33;;;;;;;25.27;10.77;;;10.60;99.90;;;;;;5053958;28;20119;-77
2024/03/03 00:45:59;;;;;;;21.48;10.00;;;10.60;99.90;;;;;;5053587;28;20053;-77
2024/03/03 00:48:25;;;;;;;21.40;9.90;;;10.60;99.90;;;;;;5055174;28;20108;-77
2024/03/03 00:50:50;;;;;;;21.27;9.60;;;10.60;99.90;;;;;;5056461;28;20032;-77
2024/03/03 00:53:16;;;;;;;25.10;10.18;;;10.50;99.90;;;;;;5053569;28;20032;-77
2024/03/03 00:55:46;;;;;;;22.73;10.05;;;10.50;99.90;;;;;;5055252;28;20433;-78
2024/03/03 00:58:13;;;;;;;21.42;10.18;;;10.50;99.90;;;;;;5054250;28;20029;-77
2024/03/03 01:00:39;;;;;;;21.33;10.63;;;10.50;99.90;;;;;;5055310;28;20029;-77
2024/03/03 01:03:05;;;;;;;25.80;10.18;;;10.50;99.90;;;;;;5054577;28;20021;-77
2024/03/03 01:05:31;;;;;;;21.33;10.07;;;10.50;99.90;;;;;;5055118;28;20025;-77
2024/03/03 01:07:57;;;;;;;19.98;9.57;;;10.50;99.90;;;;;;5052757;28;20397;-74
2024/03/03 01:10:23;;;;;;;29.25;10.70;;;10.50;99.90;;;;;;5053877;28;20028;-76
2024/03/03 01:12:48;;;;;;;22.88;9.65;;;10.50;99.90;;;;;;5053667;28;20025;-77
2024/03/03 01:15:14;;;;;;;24.45;11.07;;;10.50;99.90;;;;;;5052843;28;20119;-77
2024/03/03 01:17:39;;;;;;;22.20;10.13;;;10.50;99.90;;;;;;5053852;28;20222;-77
2024/03/03 01:20:06;;;;;;;21.45;10.55;;;10.50;99.90;;;;;;5054166;28;20057;-77
2024/03/03 01:22:32;;;;;;;22.33;10.13;;;10.40;99.90;;;;;;5054755;28;20527;-77
2024/03/03 01:24:58;;;;;;;23.02;10.65;;;10.40;99.90;;;;;;5053524;28;20025;-75
2024/03/03 01:27:24;;;;;;;22.38;10.02;;;10.40;99.90;;;;;;5053447;28;20033;-76
2024/03/03 01:29:50;;;;;;;21.85;9.90;;;10.40;99.90;;;;;;5054520;28;20025;-77
2024/03/03 01:32:16;;;;;;;20.83;10.45;;;10.40;99.90;;;;;;5052944;28;20048;-76
2024/03/03 01:34:41;;;;;;;24.08;10.98;;;10.40;99.90;;;;;;5054403;28;20025;-77
2024/03/03 01:37:07;;;;;;;22.58;10.27;;;10.40;99.90;;;;;;5052625;28;20029;-76
2024/03/03 01:39:36;;;;;;;20.77;9.95;;;10.40;99.90;;;;;;5054496;28;20025;-77
2024/03/03 01:42:01;;;;;;;22.77;10.10;;;10.40;99.90;;;;;;5052731;28;20116;-76
2024/03/03 01:44:27;;;;;;;19.85;10.38;;;10.30;99.90;;;;;;5054036;28;20151;-76
2024/03/03 01:46:54;;;;;;;23.88;10.82;;;10.30;99.90;;;;;;5052953;28;20037;-77
2024/03/03 01:49:20;;;;;;;21.38;10.40;;;10.20;99.90;;;;;;5052923;28;20029;-77
2024/03/03 01:51:46;;;;;;;26.33;10.88;;;10.30;99.90;;;;;;5052791;28;20036;-76
2024/03/03 01:54:12;;;;;;;20.58;9.55;;;10.20;99.90;;;;;;5052201;28;20025;-76
2024/03/03 01:56:40;;;;;;;26.80;10.82;;;10.10;99.90;;;;;;5052815;28;20029;-76
2024/03/03 01:59:08;;;;;;;20.60;9.43;;;10.10;99.90;;;;;;5052160;28;20025;-75
2024/03/03 02:01:34;;;;;;;22.58;10.02;;;10.10;99.90;;;;;;5054040;28;20032;-76
2024/03/03 02:04:00;;;;;;;21.05;9.95;;;10.10;99.90;;;;;;5052683;28;20029;-77
2024/03/03 02:06:30;;;;;;;21.55;9.77;;;10.10;99.90;;;;;;5069379;28;20044;-76
2024/03/03 02:08:57;;;;;;;23.58;10.65;;;10.00;99.90;;;;;;5053715;28;20493;-76
2024/03/03 02:11:23;;;;;;;22.67;10.45;;;10.00;99.90;;;;;;5051824;28;20044;-76
2024/03/03 02:13:49;;;;;;;25.85;10.70;;;10.00;99.90;;;;;;5053679;28;20462;-76
2024/03/03 02:16:15;;;;;;;22.88;9.77;;;10.00;99.90;;;;;;5052756;28;20039;-76
2024/03/03 02:18:40;;;;;;;24.15;9.90;;;9.90;99.90;;;;;;5069264;28;20083;-76
2024/03/03 02:21:06;;;;;;;23.10;10.40;;;9.90;99.90;;;;;;5052938;28;20095;-76
2024/03/03 02:23:31;;;;;;;19.92;9.52;;;9.90;99.90;;;;;;5053685;28;20035;-76
2024/03/03 02:25:57;;;;;;;23.88;11.00;;;9.80;99.90;;;;;;5053303;28;20025;-76
2024/03/03 02:28:25;;;;;;;21.27;9.55;;;9.80;99.90;;;;;;5052912;28;20033;-76
2024/03/03 02:30:51;;;;;;;20.23;10.23;;;9.80;99.90;;;;;;5053456;28;20032;-77
2024/03/03 02:33:16;;;;;;;21.02;9.85;;;9.70;99.90;;;;;;5051795;28;20025;-76
2024/03/03 02:35:42;;;;;;;22.90;10.45;;;9.60;99.90;;;;;;5053362;28;20032;-77
2024/03/03 02:38:07;;;;;;;21.75;10.38;;;9.60;99.90;;;;;;5052922;28;20024;-77
2024/03/03 02:40:33;;;;;;;23.33;10.48;;;9.60;99.90;;;;;;5052328;28;20036;-76
2024/03/03 02:43:00;;;;;;;23.00;10.30;;;9.60;99.90;;;;;;5052066;28;20025;-76
2024/03/03 02:45:26;;;;;;;22.27;10.32;;;9.60;99.90;;;;;;5052711;28;20087;-76
2024/03/03 02:47:53;;;;;;;22.08;9.90;;;9.60;99.90;;;;;;5053181;28;20060;-76
2024/03/03 02:50:19;;;;;;;24.00;9.85;;;9.60;99.90;;;;;;5068140;28;20374;-76
2024/03/03 02:52:45;;;;;;;20.50;10.32;;;9.60;99.90;;;;;;5068557;28;20382;-76
2024/03/03 02:55:11;;;;;;;24.98;10.30;;;9.50;99.90;;;;;;5051386;28;20025;-76
2024/03/03 02:57:36;;;;;;;20.27;9.80;;;9.60;99.90;;;;;;5053427;28;20463;-78
2024/03/03 03:00:03;;;;;;;24.02;10.90;;;9.50;99.90;;;;;;5051706;28;20029;-76
2024/03/03 03:02:28;;;;;;;24.48;10.35;;;9.50;99.90;;;;;;5052861;28;20033;-76
2024/03/03 03:04:56;;;;;;;24.08;10.30;;;9.50;99.90;;;;;;5051735;28;20143;-76
2024/03/03 03:07:22;;;;;;;20.83;9.65;;;9.50;99.90;;;;;;5050871;28;20037;-76
2024/03/03 03:09:47;;;;;;;21.35;9.57;;;9.40;99.90;;;;;;5068265;28;20496;-76
2024/03/03 03:12:13;;;;;;;19.95;9.25;;;9.40;99.90;;;;;;5052386;28;20374;-76
2024/03/03 03:14:39;;;;;;;21.83;9.65;;;9.40;99.90;;;;;;5067880;28;20033;-76
2024/03/03 03:17:04;;;;;;;23.48;10.00;;;9.40;99.90;;;;;;5052338;28;20082;-74
2024/03/03 03:19:32;;;;;;;23.23;10.65;;;9.40;99.90;;;;;;5052197;28;20067;-76
2024/03/03 03:21:58;;;;;;;22.92;9.70;;;9.40;99.90;;;;;;5051661;28;20021;-76
2024/03/03 03:24:26;;;;;;;22.40;9.35;;;9.40;99.90;;;;;;5052265;28;20052;-76
2024/03/03 03:26:52;;;;;;;20.02;9.65;;;9.40;99.90;;;;;;5068250;28;20501;-75
2024/03/03 03:29:18;;;;;;;21.15;10.02;;;9.40;99.90;;;;;;5052064;28;20049;-76
2024/03/03 03:31:44;;;;;;;21.98;10.40;;;9.40;99.90;;;;;;5052548;28;20366;-76
2024/03/03 03:34:10;;;;;;;22.25;10.05;;;9.40;99.90;;;;;;5050714;28;20025;-77
2024/03/03 03:36:35;;;;;;;23.63;10.40;;;9.40;99.90;;;;;;5050941;28;20029;-76
2024/03/03 03:39:01;;;;;;;22.92;10.00;;;9.40;99.90;;;;;;5051412;28;20029;-76
2024/03/03 03:41:28;;;;;;;22.80;10.32;;;9.30;99.90;;;;;;5050704;28;20384;-76
2024/03/03 03:43:53;;;;;;;21.42;10.38;;;9.30;99.90;;;;;;5052555;28;20029;-76
2024/03/03 03:46:19;;;;;;;24.10;10.05;;;9.30;99.90;;;;;;5050064;28;20072;-76
2024/03/03 03:48:45;;;;;;;24.63;10.55;;;9.30;99.90;;;;;;5051172;28;20075;-76
2024/03/03 03:51:11;;;;;;;22.63;10.52;;;9.30;99.90;;;;;;5051554;28;20025;-75
2024/03/03 03:53:36;;;;;;;27.85;10.88;;;9.30;99.90;;;;;;5051296;28;20124;-76
2024/03/03 03:56:02;;;;;;;22.35;10.20;;;9.20;99.90;;;;;;5052237;28;20087;-76
2024/03/03 03:58:28;;;;;;;22.00;10.35;;;9.20;99.90;;;;;;5050519;28;20529;-76
2024/03/03 04:00:53;;;;;;;27.85;10.95;;;9.20;99.90;;;;;;5051015;28;20048;-76
2024/03/03 04:03:19;;;;;;;22.33;10.18;;;9.20;99.90;;;;;;5051480;28;20086;-76
2024/03/03 04:05:44;;;;;;;23.02;10.88;;;9.20;99.90;;;;;;5052324;28;20489;-76
2024/03/03 04:08:10;;;;;;;19.25;9.80;;;9.10;99.90;;;;;;5050292;28;20112;-76
2024/03/03 04:10:35;;;;;;;22.85;9.88;;;9.00;99.90;;;;;;5052161;28;20029;-76
2024/03/03 04:13:01;;;;;;;24.77;10.93;;;9.00;99.90;;;;;;5051801;28;20027;-76
2024/03/03 04:15:27;;;;;;;23.10;9.45;;;9.00;99.90;;;;;;5054307;28;20060;-76
2024/03/03 04:17:52;;;;;;;22.08;10.10;;;9.00;99.90;;;;;;5071415;28;20052;-76
2024/03/03 04:20:18;;;;;;;24.52;10.75;;;9.00;99.90;;;;;;5055377;28;20032;-76
2024/03/03 04:22:44;;;;;;;21.95;10.02;;;9.00;99.90;;;;;;5054801;28;20104;-76
2024/03/03 04:25:09;;;;;;;21.23;9.55;;;9.00;99.90;;;;;;5055463;28;20066;-75
2024/03/03 04:27:38;;;;;;;22.25;10.52;;;9.00;99.90;;;;;;5071823;28;20460;-77
2024/03/03 04:30:05;;;;;;;27.48;10.65;;;8.90;99.90;;;;;;5056267;28;20036;-77
2024/03/03 04:32:30;;;;;;;25.98;9.95;;;8.90;99.90;;;;;;5054411;28;20025;-77
2024/03/03 04:35:00;;;;;;;24.67;10.18;;;8.90;99.90;;;;;;5056188;28;20115;-77
2024/03/03 04:37:25;;;;;;;21.50;9.30;;;8.90;99.90;;;;;;5054054;28;20039;-77
2024/03/03 04:39:51;;;;;;;20.48;9.27;;;8.90;99.90;;;;;;5055071;28;20441;-77
2024/03/03 04:42:16;;;;;;;22.98;10.48;;;8.80;99.90;;;;;;5055288;28;20032;-77
2024/03/03 04:44:42;;;;;;;23.25;9.85;;;8.80;99.90;;;;;;5054864;28;20053;-77
2024/03/03 04:47:09;;;;;;;23.45;9.43;;;8.80;99.90;;;;;;5071204;28;20051;-76
2024/03/03 04:49:35;;;;;;;24.17;10.10;;;8.80;99.90;;;;;;5055221;28;20497;-76
2024/03/03 04:52:01;;;;;;;24.65;11.07;;;8.70;99.90;;;;;;5055641;28;20060;-76
2024/03/03 04:54:26;;;;;;;23.58;10.48;;;8.70;99.90;;;;;;5053963;28;20029;-76
2024/03/03 04:56:52;;;;;;;24.95;10.73;;;8.60;99.90;;;;;;5054467;28;20541;-76
2024/03/03 04:59:17;;;;;;;22.05;10.32;;;8.70;99.90;;;;;;5053663;28;20115;-76
2024/03/03 05:01:43;;;;;;;24.13;11.38;;;8.70;99.90;;;;;;5054235;28;20025;-76
2024/03/03 05:04:09;;;;;;;20.77;10.35;;;8.70;99.90;;;;;;5054394;28;20025;-76
2024/03/03 05:06:43;;;;;;;20.70;10.05;;;8.70;99.90;;;;;;5054571;28;20037;-76
2024/03/03 05:09:09;;;;;;;23.95;9.98;;;8.70;99.90;;;;;;5054233;28;20025;-76
2024/03/03 05:11:35;;;;;;;26.92;9.82;;;8.70;99.90;;;;;;5070058;28;20029;-76
2024/03/03 05:14:01;;;;;;;24.25;10.23;;;8.70;99.90;;;;;;5070532;28;20033;-76
2024/03/03 05:16:26;;;;;;;21.58;10.45;;;8.70;99.90;;;;;;5053149;28;20454;-76
2024/03/03 05:18:52;;;;;;;24.13;10.73;;;8.70;99.90;;;;;;5053621;28;20021;-76
2024/03/03 05:21:18;;;;;;;25.67;10.32;;;8.70;99.90;;;;;;5052992;28;20116;-76
2024/03/03 05:23:43;;;;;;;21.90;9.93;;;8.60;99.90;;;;;;5053699;28;20416;-77
2024/03/03 05:26:17;;;;;;;23.52;10.63;;;8.60;99.90;;;;;;5054272;28;20029;-77
2024/03/03 05:28:45;;;;;;;21.88;10.48;;;8.60;99.90;;;;;;5054047;28;20040;-77
2024/03/03 05:31:10;;;;;;;26.50;11.35;;;8.60;99.90;;;;;;5053761;28;20032;-77
2024/03/03 05:33:36;;;;;;;22.33;10.43;;;8.60;99.90;;;;;;5054144;28;20021;-77
2024/03/03 05:36:02;;;;;;;27.50;10.40;;;8.60;99.90;;;;;;5054748;28;20524;-77
2024/03/03 05:38:27;;;;;;;24.67;10.70;;;8.60;99.90;;;;;;5054171;28;20029;-77
2024/03/03 05:40:53;;;;;;;25.27;10.13;;;8.50;99.90;;;;;;5054671;28;20071;-77
2024/03/03 05:43:18;;;;;;;23.83;10.98;;;8.50;99.90;;;;;;5053169;28;20123;-76
2024/03/03 05:45:45;;;;;;;24.08;10.23;;;8.50;99.90;;;;;;5055152;28;20437;-77
2024/03/03 05:48:10;;;;;;;21.98;9.90;;;8.50;99.90;;;;;;5054434;28;20118;-77
2024/03/03 05:50:36;;;;;;;22.65;9.45;;;8.50;99.90;;;;;;5054060;28;20475;-77
2024/03/03 05:53:03;;;;;;;21.58;9.93;;;8.60;99.90;;;;;;5070141;28;20025;-77
2024/03/03 05:55:29;;;;;;;22.50;10.00;;;8.50;99.90;;;;;;5053815;28;20022;-77
2024/03/03 05:57:54;;;;;;;20.55;9.13;;;8.50;99.90;;;;;;5053155;28;20029;-77
2024/03/03 06:00:20;;;;;;;22.88;9.68;;;8.60;99.90;;;;;;5053622;28;20027;-77
2024/03/03 06:02:45;;;;;;;25.95;11.02;;;8.60;99.90;;;;;;5069797;28;20378;-77
2024/03/03 06:05:11;;;;;;;22.50;9.45;;;8.50;99.90;;;;;;5053349;28;20025;-77
2024/03/03 06:07:36;;;;;;;22.35;10.35;;;8.60;99.90;;;;;;5068870;28;20424;-76
2024/03/03 06:10:04;;;;;;;19.15;9.32;;;8.60;99.90;;;;;;5052259;28;20441;-76
2024/03/03 06:12:30;;;;;;;26.70;10.93;;;8.60;99.90;;;;;;5051390;28;20492;-76
2024/03/03 06:14:56;;;;;;;24.98;10.55;;;8.60;99.90;;;;;;5052776;28;20029;-76
2024/03/03 06:17:21;;;;;;;24.40;10.15;;;8.60;99.90;;;;;;5052908;28;20033;-77
2024/03/03 06:19:47;;;;;;;21.73;10.32;;;8.60;99.90;;;;;;5052355;28;20528;-78
2024/03/03 06:22:12;;;;;;;22.80;10.68;;;8.50;99.90;;;;;;5052366;28;20028;-76
2024/03/03 06:24:38;;;;;;;24.33;10.38;;;8.50;99.90;;;;;;5052346;28;20029;-77
2024/03/03 06:27:04;;;;;;;20.77;9.90;;;8.50;99.90;;;;;;5052143;28;20389;-77
2024/03/03 06:29:30;;;;;;;23.55;10.27;;;8.60;99.90;;;;;;5051514;28;20025;-76
2024/03/03 06:31:55;;;;;;;22.20;10.48;;;8.60;99.90;;;;;;5051620;28;20104;-76
2024/03/03 06:34:21;;;;;;;23.98;10.40;;;8.50;99.90;;;;;;5052306;28;20024;-76
2024/03/03 06:36:47;;;;;;;22.48;9.52;;;8.50;99.90;;;;;;5051567;28;20377;-77
2024/03/03 06:39:14;;;;;;;23.45;11.00;;;8.50;99.90;;;;;;5051888;28;20028;-77
2024/03/03 06:41:42;;;;;;;22.30;10.23;;;8.50;99.90;;;;;;5051192;28;20028;-77
2024/03/03 06:44:08;;;;;;;26.08;11.02;;;8.50;99.90;;;;;;5052482;28;20025;-78
2024/03/03 06:46:33;;;;;;;24.20;11.18;;;8.50;99.90;;;;;;5050918;28;20509;-77
2024/03/03 06:48:59;;;;;;;23.38;10.50;;;8.50;99.90;;;;;;5052837;28;20036;-77
2024/03/03 06:51:24;;;;;;;21.67;10.60;;;8.50;99.90;;;;;;5050806;28;20032;-77
2024/03/03 06:53:50;;;;;;;21.85;10.25;;;8.50;99.90;;;;;;5050905;28;20120;-76
2024/03/03 06:56:17;;;;;;;23.10;11.02;;;8.50;99.90;;;;;;5051168;28;20029;-77
2024/03/03 06:58:44;;;;;;;24.10;11.15;;;8.50;99.90;;;;;;5050511;28;20123;-77
2024/03/03 07:01:11;;;;;;;26.00;11.77;;;8.60;99.90;;;;;;5053248;28;20035;-77
2024/03/03 07:06:21;;;;;;;23.42;10.80;;;8.50;99.90;;;;;;5052642;28;20036;-77
2024/03/03 07:08:47;;;;;;;25.33;10.85;;;8.60;99.90;;;;;;5052091;28;20025;-77
2024/03/03 07:11:12;;;;;;;26.38;11.15;;;8.60;99.90;;;;;;5051114;28;20054;-77
2024/03/03 07:13:38;;;;;;;23.98;11.07;;;8.70;99.90;;;;;;5052850;28;20230;-77
2024/03/03 07:16:04;;;;;;;20.80;9.80;;;8.70;99.90;;;;;;5051665;28;20141;-77
2024/03/03 07:18:29;;;;;;;21.45;10.23;;;8.70;99.90;;;;;;5051216;28;20029;-77
2024/03/03 07:20:55;;;;;;;24.60;11.45;;;8.70;99.90;;;;;;5051202;28;20075;-80
2024/03/03 07:23:20;;;;;;;21.98;10.68;;;8.80;99.90;;;;;;5051892;28;20021;-74
2024/03/03 07:25:46;;;;;;;22.25;10.88;;;8.80;99.90;;;;;;5050883;28;20029;-76
2024/03/03 07:28:12;;;;;;;22.73;10.43;;;8.80;99.90;;;;;;5051191;28;20035;-76
2024/03/03 07:30:37;;;;;;;22.63;10.65;;;8.80;99.90;;;;;;5051510;28;20626;-76
2024/03/03 07:33:03;;;;;;;27.08;10.77;;;8.90;99.90;;;;;;5050197;28;20021;-78
2024/03/03 07:35:29;;;;;;;24.13;11.27;;;8.90;99.90;;;;;;5050818;28;20480;-77
2024/03/03 07:37:54;;;;;;;18.63;9.13;;;8.90;99.90;;;;;;5051992;28;20064;-77
2024/03/03 07:40:20;;;;;;;23.45;10.65;;;8.90;99.90;;;;;;5050290;28;20021;-76
2024/03/03 07:42:46;;;;;;;25.50;10.48;;;9.00;99.90;;;;;;5050267;28;20029;-78
2024/03/03 07:45:11;;;;;;;23.77;10.88;;;8.90;99.90;;;;;;5049765;28;20052;-78
2024/03/03 07:47:37;;;;;;;21.55;10.07;;;9.00;99.90;;;;;;5050126;28;20033;-77
2024/03/03 07:50:04;;;;;;;22.83;10.45;;;9.00;99.90;;;;;;5055742;28;20032;-77
2024/03/03 07:52:30;;;;;;;23.17;10.85;;;9.10;99.90;;;;;;5053668;28;20476;-77
2024/03/03 07:54:56;;;;;;;22.60;10.32;;;9.10;99.90;;;;;;5055976;28;20025;-76
2024/03/03 07:57:21;;;;;;;22.60;10.45;;;9.10;99.90;;;;;;5053685;28;20449;-77
2024/03/03 07:59:47;;;;;;;22.75;10.48;;;9.10;99.90;;;;;;5056388;28;20454;-77
2024/03/03 08:02:13;;;;;;;21.90;10.82;;;9.10;99.90;;;;;;5055949;28;20021;-77
2024/03/03 08:04:38;;;;;;;22.40;10.82;;;9.10;99.90;;;;;;5053817;28;20021;-76
2024/03/03 08:07:04;;;;;;;24.50;9.93;;;9.20;99.90;;;;;;5056295;28;20220;-77
2024/03/03 08:09:30;;;;;;;22.35;10.32;;;9.20;99.90;;;;;;5054222;28;20047;-76
2024/03/03 08:11:55;;;;;;;25.15;10.10;;;9.30;99.90;;;;;;5055811;28;20021;-77
2024/03/03 08:14:21;;;;;;;24.90;11.13;;;9.30;99.90;;;;;;5054865;28;20033;-73
2024/03/03 08:16:47;;;;;;;25.23;10.88;;;9.30;99.90;;;;;;5054280;28;20139;-77
2024/03/03 08:19:12;;;;;;;19.50;10.15;;;9.30;99.90;;;;;;5055740;28;20029;-77
2024/03/03 08:21:38;;;;;;;23.48;10.43;;;9.30;99.90;;;;;;5053487;28;20047;-78
2024/03/03 08:24:04;;;;;;;23.13;10.88;;;9.30;99.90;;;;;;5055632;28;20025;-76
2024/03/03 08:26:30;;;;;;;20.55;10.40;;;9.40;99.90;;;;;;5054681;28;20033;-77
2024/03/03 08:28:56;;;;;;;24.55;10.93;;;9.40;99.90;;;;;;5055237;28;20040;-76
2024/03/03 08:31:21;;;;;;;26.67;10.50;;;9.40;99.90;;;;;;5054512;28;20488;-77
2024/03/03 08:33:47;;;;;;;23.88;10.73;;;9.40;99.90;;;;;;5054073;28;20055;-78
2024/03/03 08:36:13;;;;;;;21.63;9.65;;;9.40;99.90;;;;;;5054856;28;20412;-78
2024/03/03 08:38:38;;;;;;;21.75;10.55;;;9.40;99.90;;;;;;5054555;28;20386;-78
2024/03/03 08:41:04;;;;;;;23.38;11.35;;;9.40;99.90;;;;;;5055204;28;20112;-78
2024/03/03 08:43:30;;;;;;;23.42;11.30;;;9.40;99.90;;;;;;5053532;28;20036;-78
2024/03/03 08:45:56;;;;;;;24.63;11.98;;;9.40;99.90;;;;;;5053718;28;20080;-78
2024/03/03 08:48:21;;;;;;;24.50;10.95;;;9.40;99.90;;;;;;5054271;28;20029;-79
2024/03/03 08:50:49;;;;;;;26.13;11.05;;;9.50;99.90;;;;;;5054094;28;20119;-78
2024/03/03 08:53:15;;;;;;;26.17;10.75;;;9.50;99.90;;;;;;5054391;28;20033;-79
2024/03/03 08:55:41;;;;;;;21.15;10.38;;;9.50;99.90;;;;;;5054950;28;20079;-78
2024/03/03 08:58:06;;;;;;;23.10;11.10;;;9.60;99.90;;;;;;5054030;28;20035;-79
2024/03/03 09:00:32;;;;;;;27.48;10.80;;;9.60;99.90;;;;;;5053864;28;20467;-78
2024/03/03 09:02:59;;;;;;;21.38;10.82;;;9.60;99.90;;;;;;5053624;28;20021;-76
2024/03/03 09:05:26;;;;;;;20.75;9.73;;;9.70;99.90;;;;;;5052610;28;20087;-75
2024/03/03 09:07:53;;;;;;;24.92;11.00;;;9.70;99.90;;;;;;5052830;28;20036;-78
2024/03/03 09:10:19;;;;;;;23.45;11.13;;;9.70;99.90;;;;;;5053731;28;20028;-75
2024/03/03 09:12:44;;;;;;;24.10;11.68;;;9.70;99.90;;;;;;5052687;28;20040;-78
2024/03/03 09:15:10;;;;;;;24.27;11.77;;;9.80;99.90;;;;;;5053942;28;20087;-77
2024/03/03 09:17:35;;;;;;;24.55;11.57;;;9.80;99.90;;;;;;5054083;28;20021;-76
2024/03/03 09:20:03;;;;;;;23.00;10.88;;;9.90;99.90;;;;;;5052721;28;20025;-77
2024/03/03 09:22:29;;;;;;;25.15;11.38;;;9.90;99.90;;;;;;5053756;28;20056;-76
2024/03/03 09:24:55;;;;;;;25.23;11.05;;;10.00;99.90;;;;;;5053092;28;20501;-77
2024/03/03 09:27:22;;;;;;;24.25;11.68;;;10.10;99.90;;;;;;5054180;28;20029;-77
2024/03/03 09:29:48;;;;;;;24.20;11.55;;;10.10;99.90;;;;;;5052369;28;20029;-76
2024/03/03 09:32:13;;;;;;;24.58;10.65;;;10.10;99.90;;;;;;5053773;28;20021;-77
2024/03/03 09:34:39;;;;;;;26.48;11.27;;;10.20;99.90;;;;;;5054017;28;20025;-76
2024/03/03 09:37:04;;;;;;;23.33;10.13;;;10.20;99.90;;;;;;5054008;28;20106;-77
2024/03/03 09:39:30;;;;;;;27.27;11.40;;;10.20;99.90;;;;;;5053147;28;20033;-77
2024/03/03 09:41:57;;;;;;;22.05;9.95;;;10.20;99.90;;;;;;5052581;28;20505;-77
2024/03/03 09:44:27;;;;;;;25.88;11.43;;;10.30;99.90;;;;;;5053925;28;20052;-78
2024/03/03 09:46:53;;;;;;;25.20;11.43;;;10.30;99.90;;;;;;5052385;28;20481;-77
2024/03/03 09:49:22;;;;;;;23.00;10.52;;;10.40;99.90;;;;;;5053054;28;20040;-77
2024/03/03 09:51:48;;;;;;;26.08;11.05;;;10.40;99.90;;;;;;5053260;28;20029;-77
2024/03/03 09:54:16;;;;;;;25.38;11.40;;;10.50;99.90;;;;;;5052622;28;20021;-77
2024/03/03 09:56:47;;;;;;;24.60;10.98;;;10.50;99.90;;;;;;5053098;28;20063;-76
2024/03/03 09:59:14;;;;;;;27.52;11.40;;;10.60;99.90;;;;;;5052220;28;20462;-76
2024/03/03 10:01:46;;;;;;;24.38;10.80;;;10.70;99.90;;;;;;5051267;28;20025;-76
2024/03/03 10:04:13;;;;;;;23.35;10.45;;;10.80;99.90;;;;;;5052299;28;20083;-76
2024/03/03 10:06:40;;;;;;;21.67;10.50;;;10.90;99.90;;;;;;5054182;28;20028;-76
2024/03/03 10:09:12;;;;;;;22.63;10.10;;;10.90;99.90;;;;;;5051212;28;20036;-76
2024/03/03 10:11:38;;;;;;;;;;;11.00;99.90;;;;;;5050896;28;20060;-76
2024/03/03 10:14:04;;;;;;;24.30;11.13;;;11.10;99.90;;;;;;5051895;28;19955;-77
2024/03/03 10:16:34;;;;;;;24.85;11.25;;;11.10;99.90;;;;;;5052222;28;20100;-75
2024/03/03 10:19:01;;;;;;;24.98;11.45;;;11.20;99.90;;;;;;5051769;28;20033;-76
2024/03/03 10:21:33;;;;;;;21.70;9.85;;;11.20;99.90;;;;;;5051623;28;20033;-77
2024/03/03 10:24:25;;;;;;;23.13;10.88;;;11.30;99.90;;;;;;5053618;28;20462;-76
2024/03/03 10:26:53;;;;;;;21.85;10.38;;;11.30;99.90;;;;;;5052199;28;20033;-76
2024/03/03 10:29:28;;;;;;;23.55;10.63;;;11.40;99.90;;;;;;5052878;28;20036;-76
2024/03/03 10:31:55;;;;;;;22.67;10.82;;;11.40;99.90;;;;;;5054948;28;20032;-77
2024/03/03 10:34:21;;;;;;;22.45;11.05;;;11.50;99.90;;;;;;5054688;28;20431;-76
2024/03/03 10:36:47;;;;;;;23.67;10.88;;;11.50;99.90;;;;;;5053382;28;20516;-77
2024/03/03 10:39:15;;;;;;;21.23;10.07;;;11.50;99.90;;;;;;5054533;28;20029;-76
2024/03/03 10:41:41;;;;;;;22.65;10.95;;;11.60;99.90;;;;;;5053316;28;20479;-77
2024/03/03 10:44:07;;;;;;;22.38;10.98;;;11.60;99.90;;;;;;5052538;28;20082;-78
2024/03/03 10:46:35;;;;;;;22.70;9.98;;;11.70;99.90;;;;;;5052444;28;20099;-77
2024/03/03 10:49:01;;;;;;;25.73;10.30;;;11.70;99.90;;;;;;5054130;28;20082;-77
2024/03/03 10:51:28;;;;;;;18.52;9.73;;;11.70;99.90;;;;;;5054741;28;20075;-78
2024/03/03 10:53:55;;;;;;;25.27;10.35;;;11.80;99.90;;;;;;5052861;28;20509;-77
2024/03/03 10:56:22;;;;;;;23.77;10.63;;;11.80;99.90;;;;;;5053294;28;20025;-77
2024/03/03 10:58:49;;;;;;;22.77;10.35;;;11.80;99.90;;;;;;5052695;28;20025;-77
2024/03/03 11:01:16;;;;;;;18.27;9.48;;;11.80;99.90;;;;;;5052465;28;20033;-77
2024/03/03 11:03:44;;;;;;;21.50;10.00;;;11.80;99.90;;;;;;5053319;28;20120;-77
2024/03/03 11:06:11;;;;;;;20.48;9.98;;;11.80;99.90;;;;;;5052645;28;20036;-77
2024/03/03 11:08:39;;;;;;;21.30;10.38;;;11.80;99.90;;;;;;5051519;28;20029;-76
2024/03/03 11:11:08;;;;;;;21.15;9.45;;;11.80;99.90;;;;;;5054159;28;20051;-76
2024/03/03 11:13:42;;;;;;;19.98;9.20;;;11.90;99.90;;;;;;5053905;28;20036;-76
2024/03/03 11:16:11;;;;;;;20.77;8.93;;;12.00;99.90;;;;;;5054694;28;20033;-76
2024/03/03 11:18:42;;;;;;;20.20;10.20;;;12.10;99.90;;;;;;5053812;28;20037;-76
2024/03/03 11:21:08;;;;;;;21.50;9.25;;;12.10;99.90;;;;;;5052947;28;20025;-76
2024/03/03 11:23:47;;;;;;;19.98;9.32;;;12.30;99.90;;;;;;5052017;28;20124;-75
2024/03/03 11:26:22;;;;;;;19.80;9.80;;;12.40;99.90;;;;;;5054760;28;20059;-77
2024/03/03 11:28:54;;;;;;;21.15;9.50;;;12.50;99.90;;;;;;5052872;28;20176;-76
2024/03/03 11:31:19;;;;;;;;;;;12.60;99.90;;;;;;5053029;28;20036;-77
2024/03/03 11:33:46;;;;;;;17.17;8.00;;;12.70;99.90;;;;;;5052163;28;19909;-77
2024/03/03 11:36:12;;;;;;;18.23;8.63;;;12.80;99.90;;;;;;5052204;28;20471;-77
2024/03/03 11:38:45;;;;;;;17.20;8.35;;;12.80;99.90;;;;;;5051739;28;20462;-76
2024/03/03 11:41:10;;;;;;;16.92;8.35;;;12.80;99.90;;;;;;5050361;28;20029;-76
2024/03/03 11:43:40;;;;;;;19.80;9.25;;;12.90;99.90;;;;;;5049914;28;20359;-77
2024/03/03 11:46:07;;;;;;;19.58;8.98;;;12.90;99.90;;;;;;5052152;28;20041;-78
2024/03/03 11:48:36;;;;;;;20.35;9.05;;;13.00;99.90;;;;;;5051771;28;20108;-78
2024/03/03 11:51:24;;;;;;;16.10;7.78;;;13.00;99.90;;;;;;5051651;28;20029;-78
2024/03/03 11:54:03;;;;;;;15.18;7.80;;;13.00;99.90;;;;;;5050329;28;20028;-78
2024/03/03 11:56:30;;;;;;;18.45;8.93;;;13.10;99.90;;;;;;5051238;28;20079;-77
2024/03/03 11:58:56;;;;;;;18.42;9.10;;;13.10;99.90;;;;;;5051450;28;20031;-77
2024/03/03 12:01:22;;;;;;;19.35;8.98;;;13.20;99.90;;;;;;5050337;28;20123;-76
2024/03/03 12:03:48;;;;;;;17.48;8.77;;;13.30;99.90;;;;;;5050988;28;20029;-76
2024/03/03 12:06:18;;;;;;;15.25;8.35;;;13.30;99.90;;;;;;5051475;28;20059;-77
2024/03/03 12:08:51;;;;;;;17.63;8.27;;;13.40;99.90;;;;;;5050661;28;20035;-77
2024/03/03 12:11:17;;;;;;;19.60;8.57;;;13.40;99.90;;;;;;5066330;28;20390;-76
2024/03/03 12:13:42;;;;;;;18.23;8.27;;;13.50;99.90;;;;;;5049661;28;20029;-77
2024/03/03 12:16:08;;;;;;;15.57;7.93;;;13.60;99.90;;;;;;5067107;28;20029;-75
2024/03/03 12:18:34;;;;;;;16.77;8.15;;;13.80;99.90;;;;;;5050729;28;20533;-74
2024/03/03 12:21:01;;;;;;;17.23;8.30;;;13.90;99.90;;;;;;5051548;28;20100;-79
2024/03/03 12:23:28;;;;;;;17.30;8.00;;;14.00;99.90;;;;;;5049754;28;20462;-78
2024/03/03 12:25:57;;;;;;;16.25;8.52;;;14.10;99.90;;;;;;5049543;28;20494;-77
2024/03/03 12:28:23;;;;;;;14.35;7.55;;;14.20;99.90;;;;;;5050112;28;20029;-77
2024/03/03 12:30:50;;;;;;;17.45;8.27;;;14.40;99.90;;;;;;5050446;28;20021;-75
2024/03/03 12:33:17;;;;;;;17.30;7.68;;;14.50;99.90;;;;;;5050196;28;20032;-75
2024/03/03 12:35:45;;;;;;;16.67;8.80;;;14.60;99.90;;;;;;5053104;28;20032;-76